Time;durP1;ratioP1;P1;durP2;ratioP2;P2;SDS_P1;SDS_P2;PMS_P1;PMS_P2;Temp;Humidity;BMP_temperature;BMP_pressure;BME280_temperature;BME280_humidity;BME280_pressure;Samples;Min_cycle;Max_cycle;Signal;HPM_P1;HPM_P2
2024/03/31 00:01:21;;;;;;;6.60;6.00;;;;;;;;;;5092171;28;20251;-57
2024/03/31 00:03:47;;;;;;;6.23;5.63;;;;;;;;;;5089794;28;20203;-57
2024/03/31 00:06:13;;;;;;;6.10;5.50;;;;;;;;;;5091780;28;20207;-56
2024/03/31 00:08:39;;;;;;;7.40;6.40;;;;;;;;;;5091082;28;20179;-57
2024/03/31 00:11:11;;;;;;;6.37;5.77;;;;;;;;;;5091744;28;20540;-57
2024/03/31 00:13:37;;;;;;;6.27;5.67;;;;;;;;;;5087249;28;20180;-57
2024/03/31 00:16:03;;;;;;;6.53;5.93;;;;;;;;;;5091677;28;20183;-59
2024/03/31 00:18:29;;;;;;;7.40;6.67;;;;;;;;;;5086799;28;20727;-57
2024/03/31 00:20:57;;;;;;;6.80;6.10;;;;;;;;;;5090301;28;20207;-57
2024/03/31 00:23:23;;;;;;;7.73;6.93;;;;;;;;;;5089878;28;20220;-57
2024/03/31 00:25:56;;;;;;;6.97;6.27;;;;;;;;;;5091288;28;20738;-58
2024/03/31 00:28:22;;;;;;;7.87;6.90;;;;;;;;;;5091302;28;20931;-57
2024/03/31 00:30:58;;;;;;;7.30;6.60;;;;;;;;;;5090755;28;20940;-57
2024/03/31 00:33:25;;;;;;;7.00;6.30;;;;;;;;;;5090545;28;20651;-57
2024/03/31 00:35:51;;;;;;;7.60;6.87;;;;;;;;;;5090913;28;20188;-57
2024/03/31 00:38:17;;;;;;;7.47;6.70;;;;;;;;;;5090351;28;20184;-57
2024/03/31 00:40:43;;;;;;;6.53;5.93;;;;;;;;;;5088621;28;20565;-57
2024/03/31 00:43:10;;;;;;;8.67;7.50;;;;;;;;;;5090529;28;20175;-57
2024/03/31 00:45:36;;;;;;;7.40;6.57;;;;;;;;;;5090439;28;20562;-56
2024/03/31 00:48:02;;;;;;;7.50;6.70;;;;;;;;;;5090403;28;20172;-58
2024/03/31 00:50:28;;;;;;;8.17;7.37;;;;;;;;;;5089375;28;20180;-57
2024/03/31 00:52:54;;;;;;;7.27;6.53;;;;;;;;;;5090229;28;20168;-59
2024/03/31 00:55:20;;;;;;;8.33;7.53;;;;;;;;;;5089998;28;20187;-62
2024/03/31 00:57:46;;;;;;;7.90;7.20;;;;;;;;;;5089303;28;20175;-61
2024/03/31 01:00:12;;;;;;;8.53;7.73;;;;;;;;;;5089651;28;20627;-61
2024/03/31 01:02:38;;;;;;;8.50;7.43;;;;;;;;;;5090640;28;20261;-61
2024/03/31 01:05:04;;;;;;;8.33;7.47;;;;;;;;;;5088230;28;20207;-61
2024/03/31 01:07:30;;;;;;;8.67;7.17;;;;;;;;;;5090103;28;20172;-60
2024/03/31 01:09:56;;;;;;;7.67;6.97;;;;;;;;;;5093449;28;20661;-62
2024/03/31 01:12:22;;;;;;;8.87;7.97;;;;;;;;;;5089884;28;20771;-61
2024/03/31 01:14:48;;;;;;;8.93;7.73;;;;;;;;;;5088808;28;20180;-62
2024/03/31 01:17:14;;;;;;;9.53;7.77;;;;;;;;;;5090621;28;20200;-61
2024/03/31 01:19:40;;;;;;;8.33;7.53;;;;;;;;;;5089658;28;20180;-61
2024/03/31 01:22:07;;;;;;;8.83;7.93;;;;;;;;;;5089344;28;20238;-61
2024/03/31 01:24:33;;;;;;;8.30;7.53;;;;;;;;;;5088861;28;20299;-62
2024/03/31 01:26:59;;;;;;;9.90;8.13;;;;;;;;;;5090324;28;20266;-61
2024/03/31 01:29:25;;;;;;;9.90;8.90;;;;;;;;;;5089945;28;20507;-62
2024/03/31 01:31:51;;;;;;;9.57;8.17;;;;;;;;;;5089734;28;20314;-61
2024/03/31 01:34:17;;;;;;;9.67;8.77;;;;;;;;;;5088910;28;20172;-61
2024/03/31 01:36:44;;;;;;;9.63;8.63;;;;;;;;;;5090414;28;20160;-61
2024/03/31 01:39:11;;;;;;;8.67;7.83;;;;;;;;;;5089588;28;20176;-61
2024/03/31 01:41:37;;;;;;;11.70;7.97;;;;;;;;;;5089742;28;20176;-62
2024/03/31 01:44:03;;;;;;;9.73;8.80;;;;;;;;;;5088528;28;20186;-61
2024/03/31 01:46:29;;;;;;;8.83;7.93;;;;;;;;;;5089796;28;20192;-61
2024/03/31 01:48:55;;;;;;;9.90;8.50;;;;;;;;;;5089054;28;20646;-61
2024/03/31 01:51:21;;;;;;;9.33;8.40;;;;;;;;;;5089554;28;20183;-61
2024/03/31 01:53:47;;;;;;;10.97;8.47;;;;;;;;;;5086695;28;20203;-61
2024/03/31 01:56:13;;;;;;;9.97;8.83;;;;;;;;;;5089514;28;20172;-62
2024/03/31 01:58:39;;;;;;;10.43;9.43;;;;;;;;;;5088280;28;20187;-61
2024/03/31 02:01:05;;;;;;;9.73;8.73;;;;;;;;;;5089374;28;20703;-61
2024/03/31 02:03:31;;;;;;;9.87;8.87;;;;;;;;;;5088467;28;20180;-62
2024/03/31 02:05:57;;;;;;;11.23;10.13;;;;;;;;;;5087056;28;20269;-57
2024/03/31 02:08:23;;;;;;;10.33;9.33;;;;;;;;;;5089204;28;20631;-58
2024/03/31 02:10:49;;;;;;;10.63;9.23;;;;;;;;;;5090031;28;20219;-58
2024/03/31 02:13:15;;;;;;;10.40;9.43;;;;;;;;;;5089309;28;20180;-57
2024/03/31 02:15:44;;;;;;;10.13;9.13;;;;;;;;;;5088884;28;20264;-57
2024/03/31 02:18:10;;;;;;;10.67;9.60;;;;;;;;;;5089351;28;20206;-58
2024/03/31 02:20:36;;;;;;;10.70;9.70;;;;;;;;;;5088899;28;20205;-56
2024/03/31 02:23:02;;;;;;;11.30;9.83;;;;;;;;;;5088934;28;20274;-57
2024/03/31 02:25:28;;;;;;;10.60;9.50;;;;;;;;;;5088751;28;20231;-57
2024/03/31 02:27:54;;;;;;;10.83;9.73;;;;;;;;;;5088864;28;20271;-58
2024/03/31 02:30:20;;;;;;;10.70;9.60;;;;;;;;;;5081103;28;20247;-57
2024/03/31 02:32:46;;;;;;;10.13;9.10;;;;;;;;;;5081615;28;20175;-57
2024/03/31 02:35:12;;;;;;;10.03;9.10;;;;;;;;;;5088988;28;20233;-57
2024/03/31 02:37:38;;;;;;;10.00;9.00;;;;;;;;;;5089459;28;20550;-58
2024/03/31 02:40:05;;;;;;;10.60;9.50;;;;;;;;;;5089819;28;20184;-60
2024/03/31 02:42:31;;;;;;;9.87;8.87;;;;;;;;;;5088776;28;20175;-60
2024/03/31 02:44:57;;;;;;;12.03;10.47;;;;;;;;;;5088697;28;20271;-57
2024/03/31 02:47:24;;;;;;;9.70;8.57;;;;;;;;;;5088831;28;20220;-58
2024/03/31 02:49:50;;;;;;;10.63;9.53;;;;;;;;;;5087458;28;20619;-57
2024/03/31 02:52:16;;;;;;;10.20;9.20;;;;;;;;;;5088223;28;20468;-58
2024/03/31 02:54:42;;;;;;;10.13;9.13;;;;;;;;;;5087973;28;20639;-58
2024/03/31 02:57:09;;;;;;;11.27;10.07;;;;;;;;;;5089398;28;20180;-58
2024/03/31 02:59:35;;;;;;;12.50;10.57;;;;;;;;;;5088924;28;20274;-57
2024/03/31 03:02:01;;;;;;;10.37;9.37;;;;;;;;;;5089973;28;20172;-57
2024/03/31 03:04:27;;;;;;;9.77;8.87;;;;;;;;;;5086939;28;20199;-57
2024/03/31 03:06:53;;;;;;;11.00;9.77;;;;;;;;;;5087519;28;20538;-57
2024/03/31 03:09:23;;;;;;;11.57;10.33;;;;;;;;;;5088832;28;20207;-57
2024/03/31 03:11:49;;;;;;;10.50;9.60;;;;;;;;;;5089356;28;20563;-57
2024/03/31 03:14:15;;;;;;;10.97;9.83;;;;;;;;;;5087886;28;20184;-57
2024/03/31 03:16:41;;;;;;;10.23;9.23;;;;;;;;;;5087400;28;20632;-57
2024/03/31 03:19:07;;;;;;;10.03;9.03;;;;;;;;;;5088219;28;20164;-57
2024/03/31 03:21:33;;;;;;;10.87;9.63;;;;;;;;;;5086047;28;20289;-57
2024/03/31 03:23:59;;;;;;;10.90;9.80;;;;;;;;;;5087982;28;20652;-57
2024/03/31 03:26:25;;;;;;;10.87;8.50;;;;;;;;;;5088244;28;20713;-58
2024/03/31 03:28:51;;;;;;;11.00;9.90;;;;;;;;;;5087504;28;20575;-58
2024/03/31 03:31:17;;;;;;;10.80;9.57;;;;;;;;;;5087865;28;20667;-58
2024/03/31 03:33:43;;;;;;;11.07;9.97;;;;;;;;;;5087922;28;20193;-58
2024/03/31 03:36:09;;;;;;;10.60;9.57;;;;;;;;;;5087571;28;20631;-58
2024/03/31 03:38:35;;;;;;;11.63;9.53;;;;;;;;;;5089037;28;20275;-58
2024/03/31 03:41:02;;;;;;;10.87;9.87;;;;;;;;;;5092442;28;20279;-58
2024/03/31 03:43:32;;;;;;;10.70;9.60;;;;;;;;;;5090828;28;20176;-58
2024/03/31 03:45:59;;;;;;;9.37;8.47;;;;;;;;;;5091358;28;20196;-58
2024/03/31 03:48:25;;;;;;;10.13;9.23;;;;;;;;;;5092465;28;20217;-58
2024/03/31 03:50:51;;;;;;;10.40;9.30;;;;;;;;;;5090924;28;20587;-58
2024/03/31 03:53:17;;;;;;;10.60;9.50;;;;;;;;;;5090081;28;20176;-58
2024/03/31 03:55:44;;;;;;;10.27;9.03;;;;;;;;;;5092415;28;20216;-58
2024/03/31 03:58:10;;;;;;;11.23;10.13;;;;;;;;;;5091396;28;20692;-58
2024/03/31 04:00:39;;;;;;;11.80;10.33;;;;;;;;;;5091364;28;20179;-57
2024/03/31 04:03:05;;;;;;;11.27;9.63;;;;;;;;;;5091432;28;20180;-57
2024/03/31 04:05:31;;;;;;;11.23;10.13;;;;;;;;;;5089970;28;20244;-58
2024/03/31 04:07:57;;;;;;;10.53;9.43;;;;;;;;;;5091464;28;20590;-57
2024/03/31 04:10:23;;;;;;;11.63;8.77;;;;;;;;;;5091421;28;20175;-57
2024/03/31 04:12:49;;;;;;;10.67;9.33;;;;;;;;;;5089830;28;20188;-57
2024/03/31 04:15:15;;;;;;;10.63;9.53;;;;;;;;;;5090205;28;20635;-57
2024/03/31 04:17:42;;;;;;;10.80;9.70;;;;;;;;;;5091049;28;20667;-57
2024/03/31 04:20:08;;;;;;;10.50;9.40;;;;;;;;;;5091028;28;20326;-56
2024/03/31 04:22:34;;;;;;;9.60;8.60;;;;;;;;;;5088460;28;20235;-57
2024/03/31 04:25:00;;;;;;;10.40;9.37;;;;;;;;;;5090360;28;20203;-56
2024/03/31 04:27:27;;;;;;;10.73;9.63;;;;;;;;;;5092047;28;20195;-57
2024/03/31 04:29:53;;;;;;;12.70;9.53;;;;;;;;;;5090271;28;20194;-56
2024/03/31 04:32:19;;;;;;;11.23;10.10;;;;;;;;;;5090862;28;20527;-56
2024/03/31 04:34:45;;;;;;;10.20;9.20;;;;;;;;;;5088970;28;20172;-59
2024/03/31 04:37:11;;;;;;;9.90;8.90;;;;;;;;;;5091162;28;20266;-57
2024/03/31 04:39:37;;;;;;;13.43;11.30;;;;;;;;;;5090450;28;20507;-57
2024/03/31 04:42:04;;;;;;;10.90;9.77;;;;;;;;;;5091220;28;20529;-56
2024/03/31 04:44:30;;;;;;;10.93;9.77;;;;;;;;;;5089498;28;20226;-56
2024/03/31 04:46:56;;;;;;;10.90;9.80;;;;;;;;;;5090857;28;20176;-61
2024/03/31 04:49:22;;;;;;;11.47;10.37;;;;;;;;;;5086671;28;20211;-61
2024/03/31 04:51:49;;;;;;;11.73;10.53;;;;;;;;;;5089982;28;20525;-60
2024/03/31 04:54:15;;;;;;;11.47;10.30;;;;;;;;;;5088416;28;20183;-61
2024/03/31 04:56:41;;;;;;;11.20;10.07;;;;;;;;;;5090464;28;20199;-60
2024/03/31 04:59:07;;;;;;;11.33;10.00;;;;;;;;;;5088361;28;20184;-60
2024/03/31 05:01:33;;;;;;;11.57;10.37;;;;;;;;;;5090248;28;20164;-61
2024/03/31 05:03:59;;;;;;;11.30;9.93;;;;;;;;;;5088568;28;20175;-61
2024/03/31 05:06:25;;;;;;;11.20;9.97;;;;;;;;;;5089891;28;20205;-60
2024/03/31 05:08:51;;;;;;;9.70;8.80;;;;;;;;;;5089322;28;20912;-60
2024/03/31 05:11:17;;;;;;;9.83;8.83;;;;;;;;;;5089684;28;20176;-60
2024/03/31 05:13:43;;;;;;;10.73;9.53;;;;;;;;;;5089461;28;20233;-60
2024/03/31 05:16:10;;;;;;;10.43;9.43;;;;;;;;;;5089744;28;20184;-61
2024/03/31 05:18:36;;;;;;;9.97;9.00;;;;;;;;;;5089246;28;20210;-61
2024/03/31 05:21:06;;;;;;;10.50;9.13;;;;;;;;;;5089897;28;20495;-61
2024/03/31 05:23:33;;;;;;;9.10;8.30;;;;;;;;;;5087764;28;20595;-59
2024/03/31 05:25:59;;;;;;;10.17;8.90;;;;;;;;;;5084584;28;20192;-61
2024/03/31 05:28:26;;;;;;;9.80;8.80;;;;;;;;;;5088952;28;20275;-61
2024/03/31 05:30:52;;;;;;;10.67;9.57;;;;;;;;;;5089290;28;20202;-61
2024/03/31 05:33:18;;;;;;;11.07;9.27;;;;;;;;;;5089138;28;20184;-60
2024/03/31 05:35:45;;;;;;;9.57;8.67;;;;;;;;;;5087603;28;20247;-60
2024/03/31 05:38:12;;;;;;;9.73;8.57;;;;;;;;;;5088386;28;20248;-61
2024/03/31 05:40:38;;;;;;;10.07;9.07;;;;;;;;;;5087660;28;20220;-61
2024/03/31 05:43:05;;;;;;;9.43;8.50;;;;;;;;;;5085087;28;20183;-60
2024/03/31 05:45:31;;;;;;;10.93;8.93;;;;;;;;;;5087031;28;20207;-61
2024/03/31 05:47:57;;;;;;;8.70;7.90;;;;;;;;;;5089732;28;20283;-61
2024/03/31 05:50:23;;;;;;;8.53;7.73;;;;;;;;;;5088899;28;20262;-64
2024/03/31 05:52:49;;;;;;;8.73;7.93;;;;;;;;;;5089960;28;20187;-61
2024/03/31 05:55:15;;;;;;;9.13;8.20;;;;;;;;;;5088978;28;20183;-61
2024/03/31 05:57:41;;;;;;;8.97;8.07;;;;;;;;;;5088731;28;20581;-56
2024/03/31 06:00:07;;;;;;;8.47;7.67;;;;;;;;;;5087542;28;20194;-57
2024/03/31 06:02:33;;;;;;;10.60;9.50;;;;;;;;;;5087526;28;20878;-56
2024/03/31 06:04:59;;;;;;;8.67;7.63;;;;;;;;;;5083015;28;20260;-57
2024/03/31 06:07:26;;;;;;;9.30;7.60;;;;;;;;;;5088664;28;20200;-56
2024/03/31 06:09:52;;;;;;;9.57;8.50;;;;;;;;;;5087721;28;20263;-56
2024/03/31 06:12:18;;;;;;;11.17;8.03;;;;;;;;;;5091028;28;20168;-57
2024/03/31 06:14:44;;;;;;;9.20;8.23;;;;;;;;;;5088807;28;20188;-58
2024/03/31 06:17:10;;;;;;;8.43;7.37;;;;;;;;;;5087711;28;20299;-56
2024/03/31 06:19:36;;;;;;;8.70;7.23;;;;;;;;;;5088823;28;20210;-56
2024/03/31 06:22:02;;;;;;;8.87;7.50;;;;;;;;;;5088463;28;20220;-56
2024/03/31 06:24:28;;;;;;;9.97;8.00;;;;;;;;;;5088406;28;20253;-57
2024/03/31 06:26:54;;;;;;;7.63;6.83;;;;;;;;;;5086384;28;20175;-57
2024/03/31 06:29:20;;;;;;;7.73;6.93;;;;;;;;;;5088198;28;20176;-56
2024/03/31 06:31:46;;;;;;;7.70;6.97;;;;;;;;;;5086761;28;20176;-56
2024/03/31 06:34:12;;;;;;;7.63;6.20;;;;;;;;;;5088993;28;20176;-56
2024/03/31 06:36:38;;;;;;;8.40;7.40;;;;;;;;;;5085295;28;20587;-56
2024/03/31 06:39:04;;;;;;;7.50;6.80;;;;;;;;;;5086885;28;20171;-57
2024/03/31 06:41:30;;;;;;;7.57;6.87;;;;;;;;;;5087293;28;20899;-57
2024/03/31 06:43:56;;;;;;;7.10;5.93;;;;;;;;;;5088699;28;20187;-57
2024/03/31 06:46:22;;;;;;;8.17;6.57;;;;;;;;;;5089157;28;20218;-57
2024/03/31 06:48:48;;;;;;;9.77;7.23;;;;;;;;;;5087947;28;20245;-56
2024/03/31 06:51:14;;;;;;;10.00;7.00;;;;;;;;;;5086560;28;20229;-58
2024/03/31 06:53:40;;;;;;;14.57;8.27;;;;;;;;;;5086690;28;20175;-59
2024/03/31 06:56:06;;;;;;;11.27;7.43;;;;;;;;;;5088123;28;20191;-59
2024/03/31 06:58:32;;;;;;;9.23;7.37;;;;;;;;;;5086445;28;20654;-59
2024/03/31 07:00:59;;;;;;;7.43;5.97;;;;;;;;;;5087783;28;20190;-59
2024/03/31 07:03:25;;;;;;;9.03;6.67;;;;;;;;;;5086366;28;20517;-60
2024/03/31 07:05:51;;;;;;;9.00;7.07;;;;;;;;;;5085275;28;20207;-59
2024/03/31 07:08:17;;;;;;;11.43;7.67;;;;;;;;;;5086217;28;20176;-60
2024/03/31 07:10:43;;;;;;;10.27;7.53;;;;;;;;;;5085911;28;20191;-61
2024/03/31 07:13:09;;;;;;;10.97;7.40;;;;;;;;;;5088211;28;20566;-61
2024/03/31 07:15:35;;;;;;;9.53;7.73;;;;;;;;;;5090942;28;20275;-61
2024/03/31 07:18:07;;;;;;;10.03;8.37;;;;;;;;;;5091455;28;20221;-61
2024/03/31 07:20:36;;;;;;;8.70;7.23;;;;;;;;;;5090556;28;20168;-61
2024/03/31 07:23:03;;;;;;;21.30;9.13;;;;;;;;;;5090934;28;20228;-61
2024/03/31 07:25:29;;;;;;;12.90;7.70;;;;;;;;;;5092100;28;20223;-61
2024/03/31 07:27:56;;;;;;;11.13;6.33;;;;;;;;;;5088565;28;20657;-62
2024/03/31 07:30:22;;;;;;;10.47;7.80;;;;;;;;;;5089687;28;20187;-61
2024/03/31 07:32:48;;;;;;;11.40;7.67;;;;;;;;;;5091246;28;20176;-57
2024/03/31 07:35:14;;;;;;;14.03;7.37;;;;;;;;;;5087362;28;20188;-56
2024/03/31 07:37:40;;;;;;;10.47;6.17;;;;;;;;;;5090026;28;20184;-56
2024/03/31 07:40:07;;;;;;;9.27;4.97;;;;;;;;;;5084510;28;20194;-56
2024/03/31 07:42:33;;;;;;;7.20;4.50;;;;;;;;;;5091908;28;20526;-56
2024/03/31 07:44:59;;;;;;;8.07;3.13;;;;;;;;;;5088586;28;20208;-58
2024/03/31 07:47:25;;;;;;;4.80;2.90;;;;;;;;;;5091086;28;20168;-57
2024/03/31 07:49:51;;;;;;;8.60;3.47;;;;;;;;;;5088281;28;20632;-56
2024/03/31 07:52:17;;;;;;;11.50;3.13;;;;;;;;;;5089889;28;20176;-56
2024/03/31 07:54:44;;;;;;;12.27;4.00;;;;;;;;;;5085147;28;20184;-57
2024/03/31 07:57:10;;;;;;;7.17;3.10;;;;;;;;;;5088653;28;20655;-56
2024/03/31 07:59:36;;;;;;;9.23;3.47;;;;;;;;;;5088755;28;20172;-56
2024/03/31 08:02:02;;;;;;;5.53;2.70;;;;;;;;;;5086779;28;20183;-57
2024/03/31 08:04:29;;;;;;;8.83;3.63;;;;;;;;;;5085360;28;20180;-59
2024/03/31 08:06:55;;;;;;;5.03;2.53;;;;;;;;;;5087297;28;20552;-56
2024/03/31 08:09:21;;;;;;;7.13;3.40;;;;;;;;;;5088145;28;20179;-56
2024/03/31 08:11:47;;;;;;;5.90;2.47;;;;;;;;;;5090468;28;20168;-56
2024/03/31 08:14:13;;;;;;;9.63;2.93;;;;;;;;;;5086790;28;20180;-56
2024/03/31 08:16:39;;;;;;;7.50;2.60;;;;;;;;;;5089724;28;20630;-56
2024/03/31 08:19:05;;;;;;;4.90;2.60;;;;;;;;;;5084875;28;20202;-59
2024/03/31 08:21:31;;;;;;;6.80;2.63;;;;;;;;;;5088976;28;20722;-59
2024/03/31 08:23:57;;;;;;;9.80;3.07;;;;;;;;;;5086902;28;20251;-60
2024/03/31 08:26:23;;;;;;;10.87;3.20;;;;;;;;;;5086740;28;20253;-59
2024/03/31 08:28:49;;;;;;;6.43;2.63;;;;;;;;;;5085135;28;20176;-60
2024/03/31 08:31:16;;;;;;;11.50;2.60;;;;;;;;;;5089121;28;20171;-60
2024/03/31 08:33:42;;;;;;;9.63;3.17;;;;;;;;;;5086699;28;20257;-59
2024/03/31 08:36:08;;;;;;;10.63;2.73;;;;;;;;;;5088075;28;20158;-60
2024/03/31 08:38:34;;;;;;;7.77;2.53;;;;;;;;;;5087192;28;20178;-59
2024/03/31 08:41:02;;;;;;;10.70;3.20;;;;;;;;;;5085545;28;20181;-60
2024/03/31 08:43:30;;;;;;;4.23;2.10;;;;;;;;;;5086796;28;20172;-59
2024/03/31 08:45:56;;;;;;;;;;;;;;;;;;5078402;28;20092;-60
2024/03/31 08:48:24;;;;;;;9.70;3.23;;;;;;;;;;5080248;28;20283;-60
2024/03/31 08:50:50;;;;;;;6.60;2.90;;;;;;;;;;5079365;28;20172;-61
2024/03/31 08:53:16;;;;;;;8.60;2.73;;;;;;;;;;5083257;28;20659;-60
2024/03/31 08:55:43;;;;;;;9.27;2.90;;;;;;;;;;5082488;28;20172;-60
2024/03/31 08:58:09;;;;;;;5.97;2.63;;;;;;;;;;5080245;28;20190;-60
2024/03/31 09:00:36;;;;;;;6.83;2.40;;;;;;;;;;5082268;28;20186;-59
2024/03/31 09:03:05;;;;;;;6.67;2.60;;;;;;;;;;5083936;28;20190;-60
2024/03/31 09:05:32;;;;;;;7.67;2.30;;;;;;;;;;5084205;28;20187;-60
2024/03/31 09:07:58;;;;;;;7.50;2.63;;;;;;;;;;5082676;28;20187;-60
2024/03/31 09:10:25;;;;;;;9.47;3.03;;;;;;;;;;5084504;28;20176;-60
2024/03/31 09:12:52;;;;;;;8.53;2.33;;;;;;;;;;5083408;28;20658;-60
2024/03/31 09:15:18;;;;;;;8.60;2.63;;;;;;;;;;5085830;28;20639;-60
2024/03/31 09:17:44;;;;;;;7.37;2.53;;;;;;;;;;5081268;28;20207;-60
2024/03/31 09:20:11;;;;;;;10.83;2.17;;;;;;;;;;5084000;28;20194;-59
2024/03/31 09:22:39;;;;;;;6.57;2.13;;;;;;;;;;5085596;28;20251;-59
2024/03/31 09:25:05;;;;;;;8.33;2.63;;;;;;;;;;5078226;28;20196;-59
2024/03/31 09:27:32;;;;;;;8.40;3.00;;;;;;;;;;5086695;28;20179;-59
2024/03/31 09:29:58;;;;;;;6.27;2.70;;;;;;;;;;5083444;28;20424;-59
2024/03/31 09:32:24;;;;;;;10.57;2.57;;;;;;;;;;5087245;28;20173;-59
2024/03/31 09:34:50;;;;;;;8.43;2.90;;;;;;;;;;5076499;28;20177;-59
2024/03/31 09:37:16;;;;;;;8.07;2.10;;;;;;;;;;5080165;28;20180;-58
2024/03/31 09:39:43;;;;;;;4.50;1.90;;;;;;;;;;5084806;28;20187;-58
2024/03/31 09:42:10;;;;;;;8.23;2.77;;;;;;;;;;5085031;28;20609;-58
2024/03/31 09:44:37;;;;;;;6.97;2.77;;;;;;;;;;5080343;28;20780;-58
2024/03/31 09:47:08;;;;;;;7.53;2.30;;;;;;;;;;5080050;28;20577;-61
2024/03/31 09:49:37;;;;;;;5.40;2.27;;;;;;;;;;5082745;28;20290;-61
2024/03/31 09:52:03;;;;;;;12.03;3.00;;;;;;;;;;5087040;28;20233;-62
2024/03/31 09:54:33;;;;;;;9.03;2.63;;;;;;;;;;5083662;28;20179;-63
2024/03/31 09:57:03;;;;;;;9.33;2.33;;;;;;;;;;5084654;28;20187;-62
2024/03/31 09:59:30;;;;;;;9.50;2.07;;;;;;;;;;5081956;28;20215;-61
2024/03/31 10:01:56;;;;;;;25.00;3.00;;;;;;;;;;5082867;28;20180;-58
2024/03/31 10:04:31;;;;;;;7.37;2.00;;;;;;;;;;5082057;28;20540;-60
2024/03/31 10:06:58;;;;;;;6.10;1.93;;;;;;;;;;5087543;28;20175;-60
2024/03/31 10:09:24;;;;;;;4.30;2.13;;;;;;;;;;5082864;28;20176;-60
2024/03/31 10:11:51;;;;;;;5.30;1.67;;;;;;;;;;5084540;28;20206;-59
2024/03/31 10:14:17;;;;;;;7.17;2.13;;;;;;;;;;5086028;28;20975;-59
2024/03/31 10:16:43;;;;;;;6.23;2.23;;;;;;;;;;5087069;28;20179;-59
2024/03/31 10:19:09;;;;;;;8.97;2.70;;;;;;;;;;5080855;28;20179;-59
2024/03/31 10:21:36;;;;;;;6.87;2.30;;;;;;;;;;5083371;28;20286;-59
2024/03/31 10:24:02;;;;;;;14.07;2.80;;;;;;;;;;5087402;28;20714;-59
2024/03/31 10:26:28;;;;;;;6.73;2.20;;;;;;;;;;5082634;28;20249;-61
2024/03/31 10:28:55;;;;;;;7.83;2.43;;;;;;;;;;5076413;28;20165;-60
2024/03/31 10:31:21;;;;;;;6.97;2.47;;;;;;;;;;5080398;28;20204;-60
2024/03/31 10:33:47;;;;;;;6.97;2.63;;;;;;;;;;5087232;28;20180;-60
2024/03/31 10:36:13;;;;;;;5.90;2.07;;;;;;;;;;5078361;28;20187;-61
2024/03/31 10:38:43;;;;;;;5.47;2.23;;;;;;;;;;5078634;28;20275;-60
2024/03/31 10:41:11;;;;;;;5.70;2.30;;;;;;;;;;5085373;28;20191;-60
2024/03/31 10:43:37;;;;;;;7.37;2.00;;;;;;;;;;5084807;28;21895;-59
2024/03/31 10:46:03;;;;;;;9.03;2.87;;;;;;;;;;5082777;28;20195;-58
2024/03/31 10:48:30;;;;;;;7.83;3.40;;;;;;;;;;5074179;28;20168;-60
2024/03/31 10:50:56;;;;;;;6.83;2.20;;;;;;;;;;5081348;28;20588;-60
2024/03/31 10:53:26;;;;;;;4.97;2.10;;;;;;;;;;5089429;28;20912;-60
2024/03/31 10:55:52;;;;;;;9.57;2.20;;;;;;;;;;5078835;28;20207;-60
2024/03/31 10:58:18;;;;;;;3.47;1.93;;;;;;;;;;5079648;28;20184;-58
2024/03/31 11:00:44;;;;;;;4.80;1.90;;;;;;;;;;5078196;28;20287;-59
2024/03/31 11:03:11;;;;;;;4.87;2.10;;;;;;;;;;5085740;28;20222;-59
2024/03/31 11:05:41;;;;;;;6.57;2.20;;;;;;;;;;5087446;28;20257;-59
2024/03/31 11:08:10;;;;;;;9.53;2.50;;;;;;;;;;5088303;28;20185;-59
2024/03/31 11:10:36;;;;;;;4.90;2.20;;;;;;;;;;5088828;28;20194;-59
2024/03/31 11:13:03;;;;;;;7.87;1.67;;;;;;;;;;5089041;28;20156;-58
2024/03/31 11:15:29;;;;;;;5.63;2.00;;;;;;;;;;5088028;28;20180;-60
2024/03/31 11:17:55;;;;;;;3.73;1.63;;;;;;;;;;5088643;28;20200;-59
2024/03/31 11:20:23;;;;;;;3.80;1.80;;;;;;;;;;5088075;28;20164;-59
2024/03/31 11:22:49;;;;;;;4.83;1.90;;;;;;;;;;5087268;28;20254;-59
2024/03/31 11:25:16;;;;;;;3.43;1.60;;;;;;;;;;5088651;28;20227;-59
2024/03/31 11:27:43;;;;;;;5.60;2.33;;;;;;;;;;5088809;28;20180;-59
2024/03/31 11:30:09;;;;;;;5.27;1.97;;;;;;;;;;5087704;28;20169;-59
2024/03/31 11:32:38;;;;;;;5.63;1.93;;;;;;;;;;5088524;28;20222;-59
2024/03/31 11:35:06;;;;;;;4.33;1.87;;;;;;;;;;5088355;28;20208;-59
2024/03/31 11:37:32;;;;;;;6.53;1.90;;;;;;;;;;5071132;28;20251;-59
2024/03/31 11:39:58;;;;;;;5.60;2.60;;;;;;;;;;5067527;28;20192;-59
2024/03/31 11:42:25;;;;;;;4.87;2.03;;;;;;;;;;5068653;28;20181;-59
2024/03/31 11:44:52;;;;;;;6.93;3.00;;;;;;;;;;5066803;28;20282;-60
2024/03/31 11:47:18;;;;;;;4.47;2.00;;;;;;;;;;5068794;28;20472;-59
2024/03/31 11:49:44;;;;;;;4.07;1.83;;;;;;;;;;5068439;28;20231;-59
2024/03/31 11:52:10;;;;;;;4.50;1.97;;;;;;;;;;5068357;28;20193;-59
2024/03/31 11:54:36;;;;;;;3.53;1.77;;;;;;;;;;5067912;28;20158;-59
2024/03/31 11:57:05;;;;;;;5.60;2.23;;;;;;;;;;5068690;28;20181;-59
2024/03/31 11:59:31;;;;;;;5.00;1.90;;;;;;;;;;5068074;28;20182;-60
2024/03/31 12:01:58;;;;;;;3.67;1.57;;;;;;;;;;5072284;28;20664;-60
2024/03/31 12:04:25;;;;;;;4.97;2.13;;;;;;;;;;5072275;28;20558;-55
2024/03/31 12:06:53;;;;;;;3.03;1.90;;;;;;;;;;5071678;28;20213;-61
2024/03/31 12:09:19;;;;;;;4.80;1.97;;;;;;;;;;5071703;28;20192;-61
2024/03/31 12:11:45;;;;;;;;;;;;;;;;;;5072534;28;20221;-53
2024/03/31 12:14:12;;;;;;;;;;;;;;;;;;5071905;28;19911;-59
2024/03/31 12:16:40;;;;;;;;;;;;;;;;;;5072581;28;20466;-60
2024/03/31 12:19:06;;;;;;;;;;;;;;;;;;5071912;28;19904;-60
2024/03/31 12:21:31;;;;;;;;;;;;;;;;;;5071505;28;19946;-59
2024/03/31 12:23:57;;;;;;;;;;;;;;;;;;5071381;28;19971;-60
2024/03/31 12:26:27;;;;;;;5.47;1.97;;;;;;;;;;5071707;28;20059;-60
2024/03/31 12:28:53;;;;;;;5.07;2.00;;;;;;;;;;5070813;28;20175;-60
2024/03/31 12:31:21;;;;;;;5.53;1.87;;;;;;;;;;5071304;28;20202;-60
2024/03/31 12:33:50;;;;;;;5.27;2.00;;;;;;;;;;5071533;28;20602;-60
2024/03/31 12:36:16;;;;;;;7.40;2.10;;;;;;;;;;5069493;28;20191;-60
2024/03/31 12:38:43;;;;;;;8.07;2.27;;;;;;;;;;5070724;28;20202;-60
2024/03/31 12:41:10;;;;;;;7.10;1.80;;;;;;;;;;5071239;28;20637;-60
2024/03/31 12:43:36;;;;;;;4.60;2.30;;;;;;;;;;5071041;28;20176;-60
2024/03/31 12:46:08;;;;;;;5.33;1.90;;;;;;;;;;5070904;28;20278;-60
2024/03/31 12:48:34;;;;;;;3.20;1.73;;;;;;;;;;5071235;28;20982;-60
2024/03/31 12:51:00;;;;;;;6.30;2.37;;;;;;;;;;5070617;28;20169;-60
2024/03/31 12:53:27;;;;;;;3.50;1.90;;;;;;;;;;5070591;28;20169;-60
2024/03/31 12:55:54;;;;;;;9.43;2.07;;;;;;;;;;5070773;28;20244;-60
2024/03/31 12:58:23;;;;;;;6.33;2.10;;;;;;;;;;5070539;28;20173;-60
2024/03/31 13:00:49;;;;;;;4.03;1.63;;;;;;;;;;5070451;28;20772;-60
2024/03/31 13:03:19;;;;;;;4.13;1.77;;;;;;;;;;5070836;28;20462;-60
2024/03/31 13:05:45;;;;;;;5.33;1.87;;;;;;;;;;5070008;28;20241;-60
2024/03/31 13:08:12;;;;;;;6.93;2.50;;;;;;;;;;5068812;28;20194;-58
2024/03/31 13:10:39;;;;;;;5.93;2.40;;;;;;;;;;5070160;28;20172;-60
2024/03/31 13:13:06;;;;;;;2.40;1.37;;;;;;;;;;5070298;28;20162;-60
2024/03/31 13:15:32;;;;;;;3.87;1.73;;;;;;;;;;5070185;28;20173;-60
2024/03/31 13:17:58;;;;;;;6.60;1.90;;;;;;;;;;5070531;28;20660;-60
2024/03/31 13:20:25;;;;;;;5.37;3.00;;;;;;;;;;5070289;28;20185;-59
2024/03/31 13:22:51;;;;;;;3.53;2.10;;;;;;;;;;5069827;28;20685;-59
2024/03/31 13:25:17;;;;;;;6.80;2.20;;;;;;;;;;5070366;28;20599;-59
2024/03/31 13:27:43;;;;;;;2.73;1.77;;;;;;;;;;5070497;28;20620;-59
2024/03/31 13:30:09;;;;;;;4.73;2.07;;;;;;;;;;5069683;28;20477;-60
2024/03/31 13:32:36;;;;;;;4.93;1.90;;;;;;;;;;5069972;28;20166;-60
2024/03/31 13:35:02;;;;;;;3.77;1.80;;;;;;;;;;5069786;28;20599;-60
2024/03/31 13:37:29;;;;;;;4.57;2.00;;;;;;;;;;5070225;28;20532;-59
2024/03/31 13:39:55;;;;;;;7.83;1.80;;;;;;;;;;5068245;28;20231;-59
2024/03/31 13:42:21;;;;;;;4.60;1.83;;;;;;;;;;5070054;28;20166;-60
2024/03/31 13:44:47;;;;;;;5.93;1.90;;;;;;;;;;5069209;28;20207;-60
2024/03/31 13:47:13;;;;;;;6.23;1.80;;;;;;;;;;5070088;28;20270;-59
2024/03/31 13:49:39;;;;;;;6.43;1.70;;;;;;;;;;5069682;28;20257;-60
2024/03/31 13:52:05;;;;;;;3.63;1.67;;;;;;;;;;5069671;28;20223;-59
2024/03/31 13:54:31;;;;;;;2.03;1.60;;;;;;;;;;5069605;28;20169;-59
2024/03/31 13:56:57;;;;;;;4.90;1.93;;;;;;;;;;5069876;28;20172;-60
2024/03/31 13:59:23;;;;;;;3.90;1.57;;;;;;;;;;5069068;28;20172;-59
2024/03/31 14:01:50;;;;;;;5.33;2.03;;;;;;;;;;5069548;28;20174;-60
2024/03/31 14:04:16;;;;;;;4.47;1.80;;;;;;;;;;5069439;28;20197;-59
2024/03/31 14:06:42;;;;;;;3.30;1.50;;;;;;;;;;5069305;28;20246;-59
2024/03/31 14:09:10;;;;;;;4.60;2.00;;;;;;;;;;5069106;28;20155;-59
2024/03/31 14:11:36;;;;;;;4.27;2.07;;;;;;;;;;5084606;28;20545;-58
2024/03/31 14:14:02;;;;;;;2.93;2.27;;;;;;;;;;5075802;28;20196;-57
2024/03/31 14:16:28;;;;;;;5.50;2.17;;;;;;;;;;5088287;28;20196;-62
2024/03/31 14:18:54;;;;;;;4.90;1.63;;;;;;;;;;5073629;28;20662;-56
2024/03/31 14:21:20;;;;;;;3.23;1.70;;;;;;;;;;5069223;28;20761;-56
2024/03/31 14:23:46;;;;;;;6.60;2.17;;;;;;;;;;5068692;28;20244;-61
2024/03/31 14:26:12;;;;;;;5.80;1.70;;;;;;;;;;5087808;28;20601;-55
2024/03/31 14:28:39;;;;;;;6.53;2.90;;;;;;;;;;5089103;28;20170;-58
2024/03/31 14:31:05;;;;;;;4.67;2.37;;;;;;;;;;5089683;28;20691;-56
2024/03/31 14:33:31;;;;;;;5.17;2.67;;;;;;;;;;5079582;28;20275;-55
2024/03/31 14:35:57;;;;;;;3.33;1.80;;;;;;;;;;5080781;28;20173;-57